Flight Track Log - Related Links

Times and Time Zones

All times are in EDT time to prevent confusion due to time zone crossing. See the N53NW flight status page for this flight to view local times or setup timezone preferences in your user account.

Time Position Orientation Groundspeed Altitude Reporting Facility
EDT Latitude Longitude Course Direction KTS MPH feet Rate Location/Type
Sat 12:48:24 PM 32.1664 -90.0678 197° South 265 305 6,400  Level Memphis Center
Sat 12:49:24 PM 32.0933 -90.0875 193° South 270 311 9,400 1,800 Climbing Memphis Center
Sat 12:50:24 PM 32.0225 -90.1025 190° South 270 311 10,000 300 Climbing Memphis Center
Sat 12:51:24 PM 31.9389 -90.1200 190° South 283 326 10,000 250 Level Memphis Center
Sat 12:52:00 PM 31.8988 -90.1090 190° South  Level Estimated
Sat 12:52:24 PM 31.8556 -90.1397 191° South 297 342 10,500  Level Memphis Center
Sat 12:53:00 PM 31.8328 -90.1320 197° South  Level FlightAware Approximate
Sat 12:53:52 PM 31.7439 -90.1606 189° South 296 341 13,500  Level Houston Center
Sat 12:54:54 PM 31.6594 -90.1786 190° South 307 353 15,500 1,220 Climbing Houston Center
Sat 12:55:55 PM 31.5714 -90.1975 190° South 318 366 16,000 244 Climbing Houston Center
Sat 12:56:57 PM 31.4817 -90.2178 191° South 329 379 16,000  Level Houston Center
Sat 12:57:59 PM 31.3742 -90.2428 191° South 328 377 16,000  Level Houston Center
Sat 12:59:01 PM 31.2856 -90.2558 187° South 325 374 16,000  Level Houston Center
Sat 01:00:03 PM 31.1967 -90.2492 176° South 320 368 16,000  Level Houston Center
Sat 01:01:04 PM 31.1072 -90.2425 176° South 323 372 16,000  Level Houston Center
Sat 01:02:06 PM 31.0175 -90.2367 177° South 322 371 16,000 -48 Level Houston Center
Sat 01:03:08 PM 30.9275 -90.2303 177° South 323 372 15,900 -55 Descending Houston Center
Sat 01:03:55 PM 30.8444 -90.2236 176° South 322 371 15,900 -780 Level Houston Center
Sat 01:05:11 PM 30.7339 -90.2153 176° South 318 366 14,300 -1,339 Descending Houston Center
Sat 01:05:56 PM 30.6686 -90.2114 177° South 311 358 13,200 -1,472 Descending Houston Center
Sat 01:06:57 PM 30.5856 -90.2367 195° South 312 359 11,700 -1,525 Descending Houston Center
Sat 01:07:58 PM 30.5011 -90.2761 202° Southwest 306 352 10,100 -1,541 Descending Houston Center
Sat 01:08:46 PM 30.4414 -90.3050 203° Southwest 303 349 8,900 -1,350 Descending Houston Center
Sat 01:09:18 PM 30.4122 -90.3203 204° Southwest 303 349 8,300 -1,677 Descending Houston Center
Sat 01:10:19 PM 30.3269 -90.3614 203° Southwest 287 330 6,300 -2,000 Descending Houston Center
Sat 01:11:21 PM 30.2603 -90.3950 204° Southwest 275 316 4,200 -1,161 Descending Houston Center
Sat 01:12:23 PM 30.2042 -90.4247 205° Southwest 243 280 3,900 -726 Descending Houston Center
Sat 01:13:25 PM 30.1508 -90.4539 205° Southwest 222 255 2,700 -976 Descending Houston Center
Sat 01:14:26 PM 30.0950 -90.4817 203° Southwest 219 252 1,900 -313 Descending Houston Center
Sat 01:15:39 PM 30.0425 -90.4531 155° Southeast 149 171 2,000  Climbing Houston Center
Sat 01:16:29 PM 30.0308 -90.4247 115° Southeast 169 194 1,900 -321 Descending Houston Center
Sat 01:17:31 PM 30.0197 -90.3725 104° East 151 174 1,400 -488 Descending Houston Center
Sat 01:18:32 PM 30.0106 -90.3372 107° East 133 153 900 -488 Descending Houston Center
Sat 01:19:34 PM 30.0025 -90.2994 104° East 123 142 400 -484 Descending Houston Center

Login

Don't have an account? Register now (free) for customized features, flight alerts, and more!